createdAt,value
2024-02-26T00:00:47.713Z,100.00
2024-02-26T00:03:50.519Z,100.00
2024-02-26T00:06:55.483Z,100.00
2024-02-26T00:09:58.218Z,100.00
2024-02-26T00:13:00.640Z,100.00
2024-02-26T00:16:04.801Z,100.00
2024-02-26T00:19:07.357Z,100.00
2024-02-26T00:22:10.167Z,100.00
2024-02-26T00:25:13.825Z,100.00
2024-02-26T00:28:16.744Z,100.00
2024-02-26T00:31:19.147Z,100.00
2024-02-26T00:34:21.991Z,100.00
2024-02-26T00:37:24.448Z,100.00
2024-02-26T00:40:27.243Z,100.00
2024-02-26T00:43:29.805Z,100.00
2024-02-26T00:46:32.500Z,100.00
2024-02-26T00:49:34.940Z,100.00
2024-02-26T00:52:37.606Z,100.00
2024-02-26T00:55:40.044Z,100.00
2024-02-26T00:58:42.703Z,100.00
2024-02-26T01:01:45.038Z,100.00
2024-02-26T01:04:47.815Z,100.00
2024-02-26T01:07:50.336Z,100.00
2024-02-26T01:10:53.097Z,100.00
2024-02-26T01:13:57.782Z,100.00
2024-02-26T01:17:00.824Z,100.00
2024-02-26T01:20:03.588Z,100.00
2024-02-26T01:23:06.369Z,100.00
2024-02-26T01:26:08.767Z,100.00
2024-02-26T01:29:11.511Z,100.00
2024-02-26T01:32:14.015Z,100.00
2024-02-26T01:35:16.896Z,100.00
2024-02-26T01:38:19.283Z,100.00
2024-02-26T01:41:21.975Z,100.00
2024-02-26T01:44:24.339Z,100.00
2024-02-26T01:47:28.244Z,100.00
2024-02-26T01:50:30.619Z,100.00
2024-02-26T01:53:33.329Z,100.00
2024-02-26T01:56:36.570Z,100.00
2024-02-26T01:59:41.207Z,100.00
2024-02-26T02:02:45.801Z,100.00
2024-02-26T02:05:48.544Z,100.00
2024-02-26T02:08:50.949Z,100.00
2024-02-26T02:11:53.888Z,100.00
2024-02-26T02:14:56.453Z,100.00
2024-02-26T02:17:59.214Z,100.00
2024-02-26T02:21:02.359Z,100.00
2024-02-26T02:24:05.443Z,100.00
2024-02-26T02:27:07.935Z,100.00
2024-02-26T02:30:12.129Z,100.00
2024-02-26T02:33:16.427Z,100.00
2024-02-26T02:36:19.288Z,100.00
2024-02-26T02:39:22.521Z,100.00
2024-02-26T02:42:25.348Z,100.00
2024-02-26T02:45:27.781Z,100.00
2024-02-26T02:48:30.723Z,100.00
2024-02-26T02:51:33.202Z,100.00
2024-02-26T02:54:36.857Z,100.00
2024-02-26T02:57:42.348Z,100.00
2024-02-26T03:00:45.498Z,100.00
2024-02-26T03:03:47.938Z,100.00
2024-02-26T03:06:50.725Z,100.00
2024-02-26T03:09:53.203Z,100.00
2024-02-26T03:12:57.307Z,100.00
2024-02-26T03:15:59.718Z,100.00
2024-02-26T03:19:02.853Z,100.00
2024-02-26T03:22:05.469Z,100.00
2024-02-26T03:25:08.758Z,100.00
2024-02-26T03:28:11.193Z,100.00
2024-02-26T03:31:13.953Z,100.00
2024-02-26T03:34:16.535Z,100.00
2024-02-26T03:37:19.296Z,100.00
2024-02-26T03:40:21.722Z,100.00
2024-02-26T03:43:27.155Z,100.00
2024-02-26T03:46:29.650Z,100.00
2024-02-26T03:49:32.426Z,100.00
2024-02-26T03:52:35.124Z,100.00
2024-02-26T03:55:38.142Z,100.00
2024-02-26T03:58:40.809Z,100.00
2024-02-26T04:01:48.299Z,100.00
2024-02-26T04:04:51.056Z,100.00
2024-02-26T04:07:53.571Z,100.00
2024-02-26T04:10:56.284Z,100.00
2024-02-26T04:13:58.743Z,100.00
2024-02-26T04:17:01.465Z,100.00
2024-02-26T04:20:04.954Z,100.00
2024-02-26T04:23:07.657Z,100.00
2024-02-26T04:26:10.021Z,100.00
2024-02-26T04:29:12.881Z,100.00
2024-02-26T04:32:15.246Z,100.00
2024-02-26T04:35:18.337Z,100.00
2024-02-26T04:38:20.752Z,100.00
2024-02-26T04:41:23.399Z,100.00
2024-02-26T04:44:25.843Z,100.00
2024-02-26T04:47:28.529Z,100.00
2024-02-26T04:50:30.908Z,100.00
2024-02-26T04:53:33.546Z,100.00
2024-02-26T04:56:35.895Z,100.00
2024-02-26T04:59:38.754Z,100.00
2024-02-26T05:02:41.221Z,100.00
2024-02-26T05:05:44.672Z,100.00
2024-02-26T05:08:47.295Z,100.00
2024-02-26T05:11:50.004Z,100.00
2024-02-26T05:14:52.398Z,100.00
2024-02-26T05:17:55.167Z,100.00
2024-02-26T05:20:57.637Z,100.00
2024-02-26T05:24:00.416Z,100.00
2024-02-26T05:27:03.126Z,100.00
2024-02-26T05:30:06.669Z,100.00
2024-02-26T05:33:13.785Z,100.00
2024-02-26T05:36:23.347Z,100.00
2024-02-26T05:39:25.964Z,100.00
2024-02-26T05:42:28.715Z,100.00
2024-02-26T05:45:31.275Z,100.00
2024-02-26T05:48:34.078Z,100.00
2024-02-26T05:51:36.906Z,100.00
2024-02-26T05:54:39.542Z,100.00
2024-02-26T05:57:42.136Z,100.00
2024-02-26T06:00:44.905Z,100.00
2024-02-26T06:03:47.687Z,100.00
2024-02-26T06:06:50.816Z,100.00
2024-02-26T06:09:53.732Z,100.00
2024-02-26T06:12:56.133Z,100.00
2024-02-26T06:15:58.821Z,100.00
2024-02-26T06:19:01.715Z,100.00
2024-02-26T06:22:04.676Z,100.00
2024-02-26T06:25:07.350Z,100.00
2024-02-26T06:28:10.063Z,100.00
2024-02-26T06:31:12.516Z,100.00
2024-02-26T06:34:15.272Z,100.00
2024-02-26T06:37:17.687Z,100.00
2024-02-26T06:40:20.802Z,100.00
2024-02-26T06:43:23.167Z,100.00
2024-02-26T06:46:27.071Z,100.00
2024-02-26T06:49:30.089Z,100.00
2024-02-26T06:52:32.915Z,100.00
2024-02-26T06:55:35.673Z,100.00
2024-02-26T06:58:38.416Z,100.00
2024-02-26T07:01:44.326Z,100.00
2024-02-26T07:04:47.501Z,100.00
2024-02-26T07:07:50.139Z,100.00
2024-02-26T07:10:53.254Z,100.00
2024-02-26T07:13:56.210Z,100.00
2024-02-26T07:16:59.572Z,100.00
2024-02-26T07:20:03.451Z,100.00
2024-02-26T07:23:07.890Z,100.00
2024-02-26T07:26:12.781Z,100.00
2024-02-26T07:29:15.427Z,100.00
2024-02-26T07:32:18.377Z,98.41
2024-02-26T07:35:20.983Z,92.08
2024-02-26T07:38:32.204Z,91.24
2024-02-26T07:41:48.253Z,90.43
2024-02-26T07:44:50.934Z,88.16
2024-02-26T07:47:53.758Z,87.48
2024-02-26T07:50:56.306Z,84.77
2024-02-26T07:53:59.040Z,83.07
2024-02-26T07:57:02.485Z,82.42
2024-02-26T08:00:08.600Z,80.58
2024-02-26T08:03:11.715Z,79.69
2024-02-26T08:06:14.466Z,76.22
2024-02-26T08:09:17.318Z,75.84
2024-02-26T08:12:19.944Z,74.58
2024-02-26T08:15:22.686Z,75.87
2024-02-26T08:18:25.459Z,74.76
2024-02-26T08:21:28.591Z,71.51
2024-02-26T08:24:31.418Z,69.33
2024-02-26T08:27:34.577Z,67.39
2024-02-26T08:30:37.085Z,60.79
2024-02-26T08:33:40.060Z,63.25
2024-02-26T08:36:44.368Z,60.93
2024-02-26T08:39:47.033Z,62.18
2024-02-26T08:42:49.816Z,62.22
2024-02-26T08:45:52.472Z,58.55
2024-02-26T08:48:55.117Z,55.75
2024-02-26T08:51:57.998Z,54.59
2024-02-26T08:55:00.587Z,54.16
2024-02-26T08:58:03.346Z,52.93
2024-02-26T09:01:05.866Z,52.72
2024-02-26T09:04:09.033Z,51.92
2024-02-26T09:07:11.496Z,52.08
2024-02-26T09:10:14.300Z,48.07
2024-02-26T09:13:16.759Z,48.19
2024-02-26T09:16:19.428Z,48.22
2024-02-26T09:19:21.941Z,47.87
2024-02-26T09:22:24.684Z,46.75
2024-02-26T09:25:27.135Z,48.12
2024-02-26T09:28:32.790Z,46.17
2024-02-26T09:31:35.335Z,45.11
2024-02-26T09:34:38.495Z,45.26
2024-02-26T09:37:41.297Z,44.41
2024-02-26T09:40:44.091Z,41.87
2024-02-26T09:43:49.708Z,41.09
2024-02-26T09:46:53.538Z,43.06
2024-02-26T09:49:57.517Z,42.49
2024-02-26T09:53:01.321Z,42.44
2024-02-26T09:56:04.376Z,42.27
2024-02-26T09:59:11.551Z,43.72
2024-02-26T10:02:15.166Z,42.34
2024-02-26T10:05:21.530Z,42.63
2024-02-26T10:08:24.173Z,43.70
2024-02-26T10:11:26.979Z,43.43
2024-02-26T10:14:29.339Z,42.32
2024-02-26T10:17:32.732Z,41.91
2024-02-26T10:20:35.136Z,40.94
2024-02-26T10:23:37.859Z,40.89
2024-02-26T10:26:47.385Z,40.38
2024-02-26T10:29:52.915Z,41.67
2024-02-26T10:32:55.713Z,41.77
2024-02-26T10:35:58.708Z,41.64
2024-02-26T10:39:03.506Z,40.34
2024-02-26T10:42:10.947Z,42.26
2024-02-26T10:45:13.596Z,42.18
2024-02-26T10:48:16.606Z,42.23
2024-02-26T10:51:30.526Z,43.02
2024-02-26T10:54:34.221Z,42.38
2024-02-26T10:57:41.520Z,41.45
2024-02-26T11:00:45.096Z,43.39
2024-02-26T11:03:50.176Z,42.38
2024-02-26T11:06:56.910Z,42.89
2024-02-26T11:10:04.476Z,41.56
2024-02-26T11:13:07.585Z,43.03
2024-02-26T11:16:10.432Z,44.43
2024-02-26T11:19:15.193Z,45.25
2024-02-26T11:22:21.578Z,46.49
2024-02-26T11:25:27.981Z,47.79
2024-02-26T11:28:31.363Z,47.27
2024-02-26T11:31:37.114Z,48.03
2024-02-26T11:34:40.661Z,47.53
2024-02-26T11:37:52.758Z,47.25
2024-02-26T11:40:55.390Z,46.64
2024-02-26T11:44:06.701Z,47.47
2024-02-26T11:47:19.885Z,46.64
2024-02-26T11:50:40.654Z,47.34
2024-02-26T11:53:49.883Z,47.58
2024-02-26T11:56:53.501Z,47.16
2024-02-26T12:00:08.461Z,47.28
2024-02-26T12:03:13.409Z,47.44
2024-02-26T12:06:15.892Z,46.23
2024-02-26T12:09:37.406Z,47.41
2024-02-26T12:12:40.649Z,47.80
2024-02-26T12:15:56.565Z,47.64
2024-02-26T12:19:00.447Z,46.25
2024-02-26T12:22:03.729Z,46.69
2024-02-26T12:25:06.906Z,47.90
2024-02-26T12:28:09.605Z,46.94
2024-02-26T12:31:11.999Z,46.80
2024-02-26T12:34:15.155Z,47.10
2024-02-26T12:37:17.915Z,47.20
2024-02-26T12:40:21.009Z,45.64
2024-02-26T12:43:23.691Z,45.08
2024-02-26T12:46:26.562Z,44.97
2024-02-26T12:49:29.040Z,46.29
2024-02-26T12:52:36.518Z,44.48
2024-02-26T12:55:41.236Z,44.56
2024-02-26T12:58:44.568Z,44.78
2024-02-26T13:01:47.021Z,45.31
2024-02-26T13:04:50.267Z,44.81
2024-02-26T13:07:54.216Z,45.30
2024-02-26T13:10:57.120Z,46.21
2024-02-26T13:13:59.901Z,44.94
2024-02-26T13:17:03.375Z,45.25
2024-02-26T13:20:07.024Z,44.98
2024-02-26T13:23:13.528Z,45.52
2024-02-26T13:26:16.045Z,44.50
2024-02-26T13:29:21.733Z,45.69
2024-02-26T13:32:24.277Z,46.56
2024-02-26T13:35:27.723Z,47.64
2024-02-26T13:38:30.436Z,46.23
2024-02-26T13:41:33.517Z,46.26
2024-02-26T13:44:40.600Z,46.25
2024-02-26T13:47:43.508Z,46.83
2024-02-26T13:50:47.186Z,45.76
2024-02-26T13:53:50.360Z,45.74
2024-02-26T13:56:53.652Z,45.03
2024-02-26T13:59:56.700Z,45.26
2024-02-26T14:02:59.955Z,44.84
2024-02-26T14:06:03.057Z,45.46
2024-02-26T14:09:06.098Z,45.09
2024-02-26T14:12:09.335Z,45.31
2024-02-26T14:15:11.857Z,45.50
2024-02-26T14:18:14.732Z,45.06
2024-02-26T14:21:17.311Z,45.20
2024-02-26T14:24:24.441Z,44.76
2024-02-26T14:27:27.685Z,45.14
2024-02-26T14:30:30.509Z,45.48
2024-02-26T14:33:33.048Z,44.96
2024-02-26T14:36:35.967Z,45.24
2024-02-26T14:39:38.613Z,45.38
2024-02-26T14:42:42.060Z,45.75
2024-02-26T14:45:44.646Z,46.64
2024-02-26T14:48:47.487Z,46.85
2024-02-26T14:51:49.941Z,47.03
2024-02-26T14:54:52.595Z,46.50
2024-02-26T14:57:55.089Z,47.44
2024-02-26T15:00:58.143Z,47.16
2024-02-26T15:04:01.851Z,47.31
2024-02-26T15:07:05.357Z,47.64
2024-02-26T15:10:08.519Z,48.08
2024-02-26T15:13:11.309Z,48.02
2024-02-26T15:16:21.869Z,48.08
2024-02-26T15:19:24.774Z,48.66
2024-02-26T15:22:27.859Z,47.65
2024-02-26T15:25:31.002Z,47.73
2024-02-26T15:28:33.408Z,47.55
2024-02-26T15:31:37.290Z,47.69
2024-02-26T15:34:39.969Z,47.84
2024-02-26T15:37:43.164Z,48.10
2024-02-26T15:40:47.866Z,48.54
2024-02-26T15:43:51.660Z,48.27
2024-02-26T15:46:54.568Z,48.54
2024-02-26T15:49:58.608Z,49.29
2024-02-26T15:53:01.528Z,50.47
2024-02-26T15:56:04.396Z,50.24
2024-02-26T15:59:06.840Z,50.90
2024-02-26T16:02:09.861Z,51.29
2024-02-26T16:05:13.894Z,52.11
2024-02-26T16:08:21.902Z,52.66
2024-02-26T16:11:24.836Z,53.33
2024-02-26T16:14:47.757Z,54.03
2024-02-26T16:17:53.181Z,54.96
2024-02-26T16:20:55.880Z,55.86
2024-02-26T16:24:00.101Z,55.60
2024-02-26T16:27:02.613Z,56.24
2024-02-26T16:30:06.125Z,56.45
2024-02-26T16:33:08.754Z,56.45
2024-02-26T16:36:13.571Z,56.20
2024-02-26T16:39:16.122Z,56.50
2024-02-26T16:42:19.772Z,56.90
2024-02-26T16:45:22.512Z,57.73
2024-02-26T16:48:25.402Z,58.59
2024-02-26T16:51:27.957Z,58.42
2024-02-26T16:54:31.073Z,58.75
2024-02-26T16:57:33.841Z,59.08
2024-02-26T17:00:36.850Z,60.28
2024-02-26T17:03:39.963Z,60.90
2024-02-26T17:06:43.005Z,61.38
2024-02-26T17:09:45.549Z,61.75
2024-02-26T17:12:48.234Z,60.73
2024-02-26T17:15:50.806Z,61.10
2024-02-26T17:18:54.162Z,60.49
2024-02-26T17:21:56.797Z,60.39
2024-02-26T17:24:59.896Z,59.96
2024-02-26T17:28:03.010Z,60.51
2024-02-26T17:31:05.681Z,60.91
2024-02-26T17:34:10.106Z,61.41
2024-02-26T17:37:12.865Z,61.04
2024-02-26T17:40:15.450Z,62.50
2024-02-26T17:43:18.802Z,63.37
2024-02-26T17:46:21.610Z,64.10
2024-02-26T17:49:27.174Z,64.72
2024-02-26T17:52:35.191Z,65.49
2024-02-26T17:55:37.890Z,65.48
2024-02-26T17:58:42.988Z,65.51
2024-02-26T18:01:45.756Z,65.48
2024-02-26T18:04:48.528Z,66.63
2024-02-26T18:07:52.266Z,66.55
2024-02-26T18:10:54.924Z,67.65
2024-02-26T18:13:58.449Z,68.34
2024-02-26T18:17:01.257Z,68.62
2024-02-26T18:20:05.643Z,69.84
2024-02-26T18:23:08.348Z,71.46
2024-02-26T18:26:11.525Z,71.88
2024-02-26T18:29:14.169Z,71.49
2024-02-26T18:32:17.184Z,71.41
2024-02-26T18:35:20.430Z,72.15
2024-02-26T18:38:22.979Z,72.85
2024-02-26T18:41:26.097Z,72.28
2024-02-26T18:44:28.683Z,72.07
2024-02-26T18:47:31.984Z,71.12
2024-02-26T18:50:34.465Z,71.42
2024-02-26T18:53:37.370Z,71.94
2024-02-26T18:56:39.800Z,72.18
2024-02-26T18:59:44.532Z,72.75
2024-02-26T19:02:47.391Z,73.02
2024-02-26T19:05:50.263Z,73.94
2024-02-26T19:08:53.290Z,74.38
2024-02-26T19:11:57.786Z,75.66
2024-02-26T19:15:00.583Z,75.85
2024-02-26T19:18:05.612Z,75.85
2024-02-26T19:21:08.550Z,75.91
2024-02-26T19:24:11.377Z,75.43
2024-02-26T19:27:15.037Z,74.92
2024-02-26T19:30:18.000Z,75.56
2024-02-26T19:33:22.297Z,75.71
2024-02-26T19:36:25.198Z,75.75
2024-02-26T19:39:29.045Z,76.18
2024-02-26T19:42:31.980Z,76.42
2024-02-26T19:45:34.606Z,77.54
2024-02-26T19:48:39.837Z,78.03
2024-02-26T19:51:43.602Z,78.04
2024-02-26T19:54:46.788Z,78.49
2024-02-26T19:57:49.574Z,78.80
2024-02-26T20:00:52.590Z,79.26
2024-02-26T20:03:55.343Z,79.41
2024-02-26T20:06:57.874Z,79.20
2024-02-26T20:10:00.749Z,79.05
2024-02-26T20:13:03.935Z,78.92
2024-02-26T20:16:07.639Z,78.35
2024-02-26T20:19:12.550Z,78.42
2024-02-26T20:22:15.442Z,78.40
2024-02-26T20:25:17.907Z,78.74
2024-02-26T20:28:20.609Z,78.47
2024-02-26T20:31:22.977Z,79.09
2024-02-26T20:34:25.990Z,78.56
2024-02-26T20:37:29.612Z,78.55
2024-02-26T20:40:33.118Z,78.78
2024-02-26T20:43:35.672Z,78.98
2024-02-26T20:46:44.523Z,79.31
2024-02-26T20:49:47.495Z,79.52
2024-02-26T20:52:51.754Z,79.93
2024-02-26T20:55:54.150Z,79.59
2024-02-26T20:58:56.845Z,80.03
2024-02-26T21:01:59.313Z,79.72
2024-02-26T21:05:02.178Z,79.30
2024-02-26T21:08:09.234Z,79.29
2024-02-26T21:11:16.309Z,78.91
2024-02-26T21:14:18.867Z,77.86
2024-02-26T21:17:21.565Z,77.09
2024-02-26T21:20:26.124Z,75.98
2024-02-26T21:23:28.862Z,75.15
2024-02-26T21:26:31.251Z,73.96
2024-02-26T21:29:33.984Z,73.55
2024-02-26T21:32:36.501Z,72.85
2024-02-26T21:35:39.457Z,72.44
2024-02-26T21:38:49.758Z,72.58
2024-02-26T21:41:53.423Z,72.53
2024-02-26T21:44:56.037Z,73.22
2024-02-26T21:47:58.930Z,74.06
2024-02-26T21:51:05.754Z,75.02
2024-02-26T21:54:08.455Z,76.33
2024-02-26T21:57:10.931Z,76.92
2024-02-26T22:00:14.031Z,76.68
2024-02-26T22:03:16.780Z,76.64
2024-02-26T22:06:19.314Z,76.78
2024-02-26T22:09:22.037Z,76.35
2024-02-26T22:12:24.577Z,75.96
2024-02-26T22:15:27.403Z,77.03
2024-02-26T22:18:29.992Z,77.80
2024-02-26T22:21:34.127Z,78.30
2024-02-26T22:24:37.711Z,78.43
2024-02-26T22:27:40.656Z,78.71
2024-02-26T22:30:43.153Z,78.23
2024-02-26T22:33:46.718Z,78.79
2024-02-26T22:36:50.499Z,79.37
2024-02-26T22:39:53.342Z,79.55
2024-02-26T22:42:57.071Z,79.84
2024-02-26T22:46:00.102Z,79.86
2024-02-26T22:49:02.580Z,79.68
2024-02-26T22:52:05.972Z,79.26
2024-02-26T22:55:08.706Z,78.82
2024-02-26T22:58:11.364Z,78.41
2024-02-26T23:01:13.820Z,78.43
2024-02-26T23:04:16.548Z,79.06
2024-02-26T23:07:19.102Z,78.92
2024-02-26T23:10:22.749Z,78.85
2024-02-26T23:13:25.168Z,78.71
2024-02-26T23:16:29.006Z,78.68
2024-02-26T23:19:34.646Z,78.95
2024-02-26T23:22:45.316Z,78.57
2024-02-26T23:25:47.768Z,78.14
2024-02-26T23:28:50.776Z,77.22
2024-02-26T23:31:53.189Z,76.49
2024-02-26T23:34:56.059Z,76.31
2024-02-26T23:37:58.557Z,75.84
2024-02-26T23:41:02.081Z,76.03
2024-02-26T23:44:04.758Z,77.16
2024-02-26T23:47:07.733Z,78.72
2024-02-26T23:50:10.420Z,80.08
2024-02-26T23:53:13.141Z,82.24
2024-02-26T23:56:15.550Z,82.99
2024-02-26T23:59:20.510Z,83.28
